createdAt,value
2024-03-06T00:00:12.835Z,54.81
2024-03-06T00:02:42.921Z,54.82
2024-03-06T00:05:10.229Z,54.62
2024-03-06T00:07:37.569Z,54.90
2024-03-06T00:10:05.669Z,54.70
2024-03-06T00:12:35.863Z,54.32
2024-03-06T00:15:03.777Z,54.47
2024-03-06T00:17:36.836Z,54.44
2024-03-06T00:20:05.911Z,54.55
2024-03-06T00:22:32.913Z,54.63
2024-03-06T00:25:03.476Z,54.57
2024-03-06T00:27:30.436Z,54.68
2024-03-06T00:30:01.569Z,54.71
2024-03-06T00:32:29.205Z,54.67
2024-03-06T00:34:56.419Z,54.61
2024-03-06T00:37:26.248Z,54.62
2024-03-06T00:39:53.206Z,54.70
2024-03-06T00:42:23.274Z,54.58
2024-03-06T00:44:53.389Z,54.85
2024-03-06T00:47:23.316Z,54.85
2024-03-06T00:49:53.334Z,54.78
2024-03-06T00:52:20.284Z,54.64
2024-03-06T00:54:50.307Z,54.65
2024-03-06T00:57:23.303Z,54.83
2024-03-06T00:59:50.280Z,54.48
2024-03-06T01:02:23.845Z,54.57
2024-03-06T01:04:57.043Z,54.62
2024-03-06T01:07:26.956Z,54.70
2024-03-06T01:09:57.767Z,54.89
2024-03-06T01:12:24.704Z,54.75
2024-03-06T01:14:57.535Z,54.60
2024-03-06T01:17:30.779Z,54.62
2024-03-06T01:20:01.994Z,54.46
2024-03-06T01:22:28.951Z,54.52
2024-03-06T01:24:59.958Z,54.55
2024-03-06T01:27:32.763Z,54.56
2024-03-06T01:30:02.113Z,54.44
2024-03-06T01:32:33.932Z,54.33
2024-03-06T01:35:16.127Z,54.52
2024-03-06T01:37:49.366Z,54.49
2024-03-06T01:40:19.476Z,54.52
2024-03-06T01:42:49.356Z,54.90
2024-03-06T01:45:25.505Z,54.96
2024-03-06T01:47:53.168Z,55.12
2024-03-06T01:50:23.208Z,54.97
2024-03-06T01:52:53.095Z,54.94
2024-03-06T01:55:23.069Z,55.12
2024-03-06T01:57:53.387Z,54.93
2024-03-06T02:00:21.382Z,54.73
2024-03-06T02:02:54.861Z,54.85
2024-03-06T02:05:22.427Z,54.64
2024-03-06T02:07:54.440Z,54.68
2024-03-06T02:10:24.336Z,54.54
2024-03-06T02:12:58.388Z,54.75
2024-03-06T02:15:28.558Z,54.63
2024-03-06T02:18:05.437Z,54.59
2024-03-06T02:20:34.646Z,54.50
2024-03-06T02:23:01.708Z,54.67
2024-03-06T02:25:28.775Z,54.68
2024-03-06T02:28:01.678Z,54.64
2024-03-06T02:30:30.836Z,54.77
2024-03-06T02:33:04.594Z,54.64
2024-03-06T02:35:32.965Z,54.75
2024-03-06T02:38:05.277Z,54.55
2024-03-06T02:40:32.289Z,54.77
2024-03-06T02:43:07.976Z,54.63
2024-03-06T02:45:34.935Z,54.53
2024-03-06T02:48:03.548Z,54.60
2024-03-06T02:50:30.476Z,54.59
2024-03-06T02:53:00.446Z,54.45
2024-03-06T02:55:35.990Z,54.60
2024-03-06T02:58:03.392Z,54.62
2024-03-06T03:00:31.876Z,54.63
2024-03-06T03:03:04.092Z,54.45
2024-03-06T03:05:34.084Z,54.36
2024-03-06T03:08:07.532Z,54.32
2024-03-06T03:10:34.979Z,54.50
2024-03-06T03:13:05.363Z,54.39
2024-03-06T03:15:35.348Z,54.36
2024-03-06T03:18:02.361Z,54.55
2024-03-06T03:20:31.296Z,54.62
2024-03-06T03:23:01.407Z,54.73
2024-03-06T03:25:31.603Z,54.44
2024-03-06T03:27:59.384Z,54.53
2024-03-06T03:30:38.083Z,54.58
2024-03-06T03:33:11.123Z,54.39
2024-03-06T03:35:41.320Z,54.48
2024-03-06T03:38:08.331Z,54.36
2024-03-06T03:40:53.689Z,54.38
2024-03-06T03:43:29.610Z,54.31
2024-03-06T03:45:56.845Z,54.38
2024-03-06T03:48:24.028Z,54.34
2024-03-06T03:50:51.284Z,54.43
2024-03-06T03:53:18.756Z,54.40
2024-03-06T03:55:48.874Z,54.52
2024-03-06T03:58:16.778Z,54.36
2024-03-06T04:00:44.648Z,54.23
2024-03-06T04:03:11.874Z,54.30
2024-03-06T04:05:42.013Z,54.10
2024-03-06T04:08:12.079Z,54.01
2024-03-06T04:10:45.477Z,54.30
2024-03-06T04:13:12.912Z,54.41
2024-03-06T04:15:43.642Z,54.30
2024-03-06T04:18:13.842Z,54.14
2024-03-06T04:20:41.068Z,54.12
2024-03-06T04:23:08.266Z,54.11
2024-03-06T04:25:41.706Z,53.99
2024-03-06T04:28:08.980Z,54.11
2024-03-06T04:30:36.203Z,54.13
2024-03-06T04:33:04.886Z,54.05
2024-03-06T04:35:41.361Z,54.02
2024-03-06T04:38:11.604Z,54.02
2024-03-06T04:40:41.994Z,54.10
2024-03-06T04:43:13.676Z,54.06
2024-03-06T04:45:40.900Z,53.98
2024-03-06T04:48:11.551Z,54.18
2024-03-06T04:50:45.367Z,54.02
2024-03-06T04:53:12.734Z,54.20
2024-03-06T04:55:39.981Z,54.19
2024-03-06T04:58:10.457Z,54.11
2024-03-06T05:00:43.470Z,54.24
2024-03-06T05:59:12.760Z,54.06
2024-03-06T06:01:40.098Z,53.92
2024-03-06T06:04:10.516Z,54.08
2024-03-06T06:06:38.017Z,53.84
2024-03-06T06:09:06.004Z,53.91
2024-03-06T06:11:36.402Z,54.06
2024-03-06T06:14:06.713Z,53.93
2024-03-06T06:16:38.158Z,54.09
2024-03-06T06:19:06.000Z,53.90
2024-03-06T06:21:36.417Z,53.81
2024-03-06T06:24:08.480Z,53.84
2024-03-06T06:26:38.166Z,53.97
2024-03-06T06:29:08.643Z,53.81
2024-03-06T06:31:44.929Z,53.63
2024-03-06T06:34:12.179Z,53.55
2024-03-06T06:36:41.336Z,53.93
2024-03-06T06:39:12.783Z,53.63
2024-03-06T06:41:40.657Z,53.38
2024-03-06T06:44:07.644Z,54.05
2024-03-06T06:46:34.621Z,53.92
2024-03-06T06:49:07.351Z,53.67
2024-03-06T06:51:34.257Z,53.68
2024-03-06T06:54:01.298Z,53.52
2024-03-06T06:56:33.062Z,53.60
2024-03-06T06:59:03.157Z,53.75
2024-03-06T07:01:33.625Z,53.59
2024-03-06T07:04:00.583Z,53.64
2024-03-06T07:06:33.323Z,53.45
2024-03-06T07:09:00.188Z,53.85
2024-03-06T07:11:27.200Z,53.81
2024-03-06T07:13:57.614Z,53.64
2024-03-06T07:16:26.782Z,53.79
2024-03-06T07:19:05.830Z,53.82
2024-03-06T07:21:32.733Z,53.63
2024-03-06T07:24:00.684Z,53.47
2024-03-06T07:26:30.890Z,53.28
2024-03-06T07:28:59.407Z,52.83
2024-03-06T07:31:26.628Z,53.04
2024-03-06T07:33:59.715Z,52.89
2024-03-06T07:36:32.759Z,52.32
2024-03-06T07:38:59.650Z,52.01
2024-03-06T07:41:26.591Z,52.03
2024-03-06T07:43:56.373Z,52.46
2024-03-06T07:46:41.351Z,52.43
2024-03-06T07:49:10.672Z,52.55
2024-03-06T07:51:46.905Z,52.43
2024-03-06T07:54:19.785Z,52.53
2024-03-06T07:56:57.349Z,52.74
2024-03-06T07:59:24.331Z,52.66
2024-03-06T08:01:52.887Z,53.90
2024-03-06T08:04:19.805Z,53.51
2024-03-06T08:06:47.130Z,53.41
2024-03-06T08:09:14.504Z,53.54
2024-03-06T08:11:49.595Z,53.09
2024-03-06T08:14:22.167Z,54.92
2024-03-06T08:16:53.596Z,54.50
2024-03-06T08:19:27.042Z,55.18
2024-03-06T08:21:53.985Z,53.77
2024-03-06T08:24:24.555Z,53.28
2024-03-06T08:26:51.575Z,54.09
2024-03-06T08:29:28.046Z,53.34
2024-03-06T08:31:58.476Z,52.91
2024-03-06T08:34:26.147Z,52.66
2024-03-06T08:36:58.628Z,53.25
2024-03-06T08:39:25.555Z,56.85
2024-03-06T08:42:12.788Z,63.74
2024-03-06T08:44:39.767Z,63.21
2024-03-06T08:47:10.122Z,60.37
2024-03-06T08:49:40.539Z,61.78
2024-03-06T08:52:09.400Z,64.15
2024-03-06T08:54:41.955Z,65.62
2024-03-06T08:57:09.214Z,60.06
2024-03-06T08:59:36.250Z,64.16
2024-03-06T09:02:15.046Z,67.13
2024-03-06T09:04:43.019Z,65.73
2024-03-06T09:07:14.577Z,60.33
2024-03-06T09:09:44.491Z,62.84
2024-03-06T09:12:12.094Z,63.23
2024-03-06T09:14:39.936Z,59.15
2024-03-06T09:17:09.817Z,62.71
2024-03-06T09:19:38.188Z,63.51
2024-03-06T09:22:05.893Z,60.86
2024-03-06T09:24:35.967Z,57.72
2024-03-06T09:27:05.987Z,59.84
2024-03-06T09:29:36.394Z,64.95
2024-03-06T09:32:04.006Z,63.09
2024-03-06T09:34:34.005Z,59.46
2024-03-06T09:37:01.263Z,58.22
2024-03-06T09:39:28.935Z,56.90
2024-03-06T09:42:02.390Z,59.99
2024-03-06T09:44:32.304Z,60.91
2024-03-06T09:47:10.976Z,64.47
2024-03-06T09:49:41.616Z,61.31
2024-03-06T09:52:14.525Z,59.77
2024-03-06T09:54:44.641Z,56.97
2024-03-06T09:57:13.410Z,56.41
2024-03-06T09:59:46.627Z,58.07
2024-03-06T10:02:35.809Z,56.39
2024-03-06T10:05:06.274Z,56.44
2024-03-06T10:07:33.247Z,55.89
2024-03-06T10:10:10.564Z,55.51
2024-03-06T10:12:37.626Z,55.46
2024-03-06T10:15:05.866Z,57.39
2024-03-06T10:17:32.942Z,58.34
2024-03-06T10:20:17.161Z,56.17
2024-03-06T10:22:44.485Z,56.93
2024-03-06T10:25:21.680Z,58.00
2024-03-06T10:28:05.853Z,56.97
2024-03-06T10:30:33.293Z,55.11
2024-03-06T10:33:10.778Z,54.65
2024-03-06T10:35:38.888Z,53.55
2024-03-06T10:38:08.443Z,54.30
2024-03-06T10:40:37.221Z,53.30
2024-03-06T10:43:06.411Z,52.14
2024-03-06T10:45:48.683Z,52.74
2024-03-06T10:48:17.649Z,57.13
2024-03-06T10:50:46.866Z,56.26
2024-03-06T10:53:20.158Z,54.61
2024-03-06T10:55:57.382Z,56.17
2024-03-06T10:58:25.920Z,55.66
2024-03-06T11:00:58.393Z,52.36
2024-03-06T11:03:31.090Z,51.32
2024-03-06T11:06:07.727Z,52.79
2024-03-06T11:08:35.260Z,52.89
2024-03-06T11:11:23.167Z,52.70
2024-03-06T11:13:51.486Z,52.06
2024-03-06T11:17:02.851Z,53.47
2024-03-06T11:19:30.520Z,52.67
2024-03-06T11:21:58.001Z,51.69
2024-03-06T11:24:32.646Z,49.96
2024-03-06T11:27:07.896Z,51.48
2024-03-06T11:30:14.097Z,53.47
2024-03-06T11:33:13.161Z,52.51
2024-03-06T11:35:45.005Z,53.02
2024-03-06T11:38:12.075Z,53.41
2024-03-06T11:40:45.020Z,52.86
2024-03-06T11:43:42.609Z,52.03
2024-03-06T11:46:13.112Z,54.54
2024-03-06T11:48:40.670Z,55.33
2024-03-06T11:51:07.626Z,52.75
2024-03-06T11:53:35.420Z,55.70
2024-03-06T11:56:02.488Z,55.61
2024-03-06T11:58:32.409Z,57.83
2024-03-06T12:01:00.418Z,56.19
2024-03-06T12:03:27.705Z,55.76
2024-03-06T12:05:57.560Z,54.99
2024-03-06T12:08:24.683Z,54.61
2024-03-06T12:10:58.550Z,53.87
2024-03-06T12:13:25.521Z,53.60
2024-03-06T12:15:58.197Z,54.19
2024-03-06T12:18:25.961Z,55.85
2024-03-06T12:20:56.025Z,54.69
2024-03-06T12:23:26.524Z,55.65
2024-03-06T12:26:09.448Z,55.76
2024-03-06T12:28:36.553Z,54.33
2024-03-06T12:31:13.611Z,55.28
2024-03-06T12:33:57.939Z,55.23
2024-03-06T12:36:26.647Z,53.68
2024-03-06T12:39:04.532Z,52.08
2024-03-06T12:41:36.857Z,53.73
2024-03-06T12:44:04.209Z,51.45
2024-03-06T12:46:31.890Z,50.20
2024-03-06T12:48:58.886Z,55.16
2024-03-06T12:51:26.003Z,54.76
2024-03-06T12:53:53.411Z,53.93
2024-03-06T12:56:22.784Z,54.38
2024-03-06T12:58:49.735Z,54.76
2024-03-06T13:01:16.744Z,54.09
2024-03-06T13:03:44.402Z,54.70
2024-03-06T13:06:17.420Z,54.67
2024-03-06T13:08:44.461Z,53.99
2024-03-06T13:11:16.344Z,53.36
2024-03-06T13:13:43.314Z,53.32
2024-03-06T13:16:14.116Z,53.59
2024-03-06T13:18:41.349Z,50.21
2024-03-06T13:21:08.978Z,53.50
2024-03-06T13:23:35.953Z,51.21
2024-03-06T13:26:03.403Z,51.02
2024-03-06T13:28:33.331Z,52.53
2024-03-06T13:31:03.481Z,50.18
2024-03-06T13:33:30.448Z,53.66
2024-03-06T13:35:57.593Z,52.67
2024-03-06T13:38:31.418Z,51.36
2024-03-06T13:40:58.460Z,52.19
2024-03-06T13:43:32.065Z,51.69
2024-03-06T13:45:59.220Z,53.51
2024-03-06T13:48:26.198Z,51.65
2024-03-06T13:51:02.192Z,52.55
2024-03-06T13:53:29.771Z,54.24
2024-03-06T13:55:59.981Z,54.41
2024-03-06T13:58:32.612Z,54.42
2024-03-06T14:01:02.784Z,53.52
2024-03-06T14:03:29.818Z,53.68
2024-03-06T14:06:02.652Z,54.30
2024-03-06T14:08:36.252Z,53.70
2024-03-06T14:11:05.797Z,50.62
2024-03-06T14:13:33.085Z,52.38
2024-03-06T14:16:03.742Z,49.53
2024-03-06T14:18:34.576Z,49.27
2024-03-06T14:21:07.372Z,50.54
2024-03-06T14:23:35.502Z,49.40
2024-03-06T14:26:05.379Z,52.58
2024-03-06T14:28:32.335Z,51.02
2024-03-06T14:31:02.276Z,52.78
2024-03-06T14:33:32.114Z,51.37
2024-03-06T14:35:59.128Z,52.87
2024-03-06T14:38:26.149Z,50.09
2024-03-06T14:41:06.588Z,53.02
2024-03-06T14:43:34.632Z,54.57
2024-03-06T14:46:10.669Z,53.83
2024-03-06T14:48:37.636Z,55.09
2024-03-06T14:51:05.257Z,50.27
2024-03-06T14:53:32.329Z,55.72
2024-03-06T14:56:03.972Z,55.63
2024-03-06T14:58:36.815Z,53.86
2024-03-06T15:01:04.017Z,55.00
2024-03-06T15:03:30.951Z,51.08
2024-03-06T15:06:04.270Z,53.57
2024-03-06T15:08:35.100Z,54.58
2024-03-06T15:11:15.436Z,55.63
2024-03-06T15:13:42.510Z,54.70
2024-03-06T15:16:13.582Z,53.10
2024-03-06T15:18:41.308Z,54.06
2024-03-06T15:21:14.100Z,53.23
2024-03-06T15:23:41.172Z,54.82
2024-03-06T15:26:11.417Z,54.26
2024-03-06T15:28:39.009Z,52.31
2024-03-06T15:31:05.937Z,51.13
2024-03-06T15:33:33.987Z,56.10
2024-03-06T15:36:01.560Z,54.11
2024-03-06T15:38:28.547Z,56.26
2024-03-06T15:41:04.933Z,55.68
2024-03-06T15:43:38.425Z,54.55
2024-03-06T15:47:25.349Z,55.45
2024-03-06T15:49:59.770Z,53.41
2024-03-06T15:52:29.923Z,56.45
2024-03-06T15:55:02.069Z,57.39
2024-03-06T15:57:32.406Z,58.06
2024-03-06T16:00:03.250Z,55.94
2024-03-06T16:02:30.599Z,54.22
2024-03-06T16:05:08.867Z,58.03
2024-03-06T16:07:47.684Z,57.93
2024-03-06T16:10:32.103Z,56.49
2024-03-06T16:13:08.622Z,55.22
2024-03-06T16:15:39.445Z,56.17
2024-03-06T16:18:06.999Z,57.22
2024-03-06T16:20:43.521Z,56.49
2024-03-06T16:23:13.426Z,56.80
2024-03-06T16:25:40.395Z,55.83
2024-03-06T16:28:10.043Z,55.96
2024-03-06T16:30:36.989Z,55.43
2024-03-06T16:33:07.712Z,52.97
2024-03-06T16:35:34.754Z,55.00
2024-03-06T16:38:04.955Z,55.84
2024-03-06T16:40:37.828Z,57.74
2024-03-06T16:43:04.965Z,54.03
2024-03-06T16:45:34.746Z,56.35
2024-03-06T16:48:09.253Z,55.76
2024-03-06T16:50:46.883Z,55.94
2024-03-06T16:53:17.929Z,55.93
2024-03-06T16:55:47.970Z,55.11
2024-03-06T16:58:21.529Z,54.89
2024-03-06T17:00:48.623Z,56.25
2024-03-06T17:03:15.641Z,55.50
2024-03-06T17:05:45.805Z,55.13
2024-03-06T17:08:16.946Z,53.22
2024-03-06T17:10:44.669Z,55.16
2024-03-06T17:13:19.023Z,54.56
2024-03-06T17:15:46.896Z,54.59
2024-03-06T17:18:14.069Z,54.46
2024-03-06T17:20:44.950Z,53.33
2024-03-06T17:23:11.901Z,55.34
2024-03-06T17:25:41.402Z,54.85
2024-03-06T17:28:14.079Z,54.99
2024-03-06T17:30:41.832Z,54.81
2024-03-06T17:33:08.798Z,54.56
2024-03-06T17:35:47.393Z,54.76
2024-03-06T17:38:17.787Z,54.45
2024-03-06T17:40:47.981Z,55.07
2024-03-06T17:43:15.330Z,55.04
2024-03-06T17:45:44.056Z,55.98
2024-03-06T17:48:16.717Z,55.62
2024-03-06T17:50:56.419Z,55.96
2024-03-06T17:53:29.667Z,55.65
2024-03-06T17:56:00.025Z,54.15
2024-03-06T17:58:26.977Z,54.46
2024-03-06T18:00:53.984Z,56.21
2024-03-06T18:03:25.423Z,57.00
2024-03-06T18:05:59.564Z,56.50
2024-03-06T18:08:32.436Z,55.51
2024-03-06T18:10:59.469Z,56.21
2024-03-06T18:13:27.669Z,58.44
2024-03-06T18:15:54.641Z,55.45
2024-03-06T18:18:24.453Z,60.49
2024-03-06T18:21:01.019Z,56.25
2024-03-06T18:23:33.944Z,58.24
2024-03-06T18:26:01.013Z,56.19
2024-03-06T18:28:36.880Z,60.00
2024-03-06T18:31:13.088Z,56.22
2024-03-06T18:33:42.336Z,58.71
2024-03-06T18:36:12.501Z,59.65
2024-03-06T18:38:39.493Z,57.45
2024-03-06T18:41:24.867Z,63.33
2024-03-06T18:43:54.866Z,60.85
2024-03-06T18:46:24.653Z,56.45
2024-03-06T18:48:54.375Z,59.85
2024-03-06T18:51:27.986Z,58.99
2024-03-06T18:53:57.740Z,57.56
2024-03-06T18:56:27.660Z,59.02
2024-03-06T18:58:57.514Z,60.74
2024-03-06T19:01:27.288Z,60.33
2024-03-06T19:03:57.605Z,58.49
2024-03-06T19:06:24.536Z,58.91
2024-03-06T19:08:59.655Z,59.22
2024-03-06T19:11:26.973Z,63.49
2024-03-06T19:14:02.987Z,60.50
2024-03-06T19:16:33.053Z,59.48
2024-03-06T19:19:01.426Z,62.21
2024-03-06T19:21:28.632Z,62.38
2024-03-06T19:24:04.564Z,60.89
2024-03-06T19:26:33.339Z,62.09
2024-03-06T19:29:04.879Z,59.47
2024-03-06T19:31:36.350Z,59.30
2024-03-06T19:34:03.386Z,57.72
2024-03-06T19:36:39.481Z,61.16
2024-03-06T19:39:13.841Z,59.71
2024-03-06T19:41:40.932Z,58.50
2024-03-06T19:44:08.609Z,61.34
2024-03-06T19:46:38.383Z,59.26
2024-03-06T19:49:05.571Z,62.47
2024-03-06T19:51:32.951Z,58.56
2024-03-06T19:54:04.144Z,58.52
2024-03-06T19:56:40.501Z,58.27
2024-03-06T19:59:10.508Z,57.69
2024-03-06T20:01:43.682Z,60.33
2024-03-06T20:04:13.541Z,58.31
2024-03-06T20:06:42.896Z,59.61
2024-03-06T20:09:14.098Z,60.79
2024-03-06T20:11:45.613Z,60.35
2024-03-06T20:14:15.339Z,61.39
2024-03-06T20:16:42.321Z,59.17
2024-03-06T20:19:12.461Z,59.87
2024-03-06T20:21:43.671Z,61.84
2024-03-06T20:24:13.980Z,58.75
2024-03-06T20:26:41.623Z,56.55
2024-03-06T20:29:15.794Z,55.57
2024-03-06T20:31:45.623Z,58.52
2024-03-06T20:34:15.022Z,57.24
2024-03-06T20:36:46.105Z,58.74
2024-03-06T20:39:16.352Z,58.36
2024-03-06T20:41:43.801Z,58.32
2024-03-06T20:44:14.591Z,57.83
2024-03-06T20:46:45.086Z,57.03
2024-03-06T20:49:21.753Z,57.19
2024-03-06T20:51:48.708Z,55.97
2024-03-06T20:54:16.252Z,55.83
2024-03-06T20:56:43.613Z,55.88
2024-03-06T20:59:11.305Z,55.58
2024-03-06T21:01:38.291Z,55.07
2024-03-06T21:04:06.156Z,55.10
2024-03-06T21:06:33.082Z,55.88
2024-03-06T21:09:07.853Z,55.82
2024-03-06T21:11:34.831Z,56.27
2024-03-06T21:14:07.990Z,56.82
2024-03-06T21:16:39.333Z,56.16
2024-03-06T21:19:07.001Z,57.20
2024-03-06T21:21:33.915Z,55.94
2024-03-06T21:24:04.176Z,56.74
2024-03-06T21:26:34.064Z,56.11
2024-03-06T21:29:01.701Z,55.54
2024-03-06T21:31:34.659Z,55.38
2024-03-06T21:34:05.546Z,54.80
2024-03-06T21:36:33.197Z,54.76
2024-03-06T21:39:07.814Z,55.04
2024-03-06T21:41:36.467Z,54.95
2024-03-06T21:44:06.490Z,54.91
2024-03-06T21:46:33.498Z,54.81
2024-03-06T21:49:07.201Z,54.53
2024-03-06T21:51:34.829Z,54.87
2024-03-06T21:54:01.750Z,54.69
2024-03-06T21:56:31.505Z,54.77
2024-03-06T21:58:58.463Z,54.76
2024-03-06T22:01:28.987Z,54.57
2024-03-06T22:03:55.909Z,54.57
2024-03-06T22:06:48.755Z,54.52
2024-03-06T22:09:16.416Z,54.67
2024-03-06T22:11:43.871Z,54.60
2024-03-06T22:14:13.997Z,54.59
2024-03-06T22:16:41.806Z,54.64
2024-03-06T22:19:08.727Z,54.20
2024-03-06T22:21:44.997Z,54.48
2024-03-06T22:24:15.184Z,54.50
2024-03-06T22:26:42.179Z,54.50
2024-03-06T22:29:12.087Z,54.38
2024-03-06T22:31:39.126Z,54.19
2024-03-06T22:34:08.898Z,54.41
2024-03-06T22:36:36.006Z,54.50
2024-03-06T22:39:06.119Z,54.43
2024-03-06T22:41:42.622Z,54.48
2024-03-06T22:44:09.612Z,54.53
2024-03-06T22:46:47.706Z,54.47
2024-03-06T22:49:21.108Z,54.39
2024-03-06T22:51:48.515Z,54.51
2024-03-06T22:54:16.574Z,54.53
2024-03-06T22:56:44.186Z,54.45
2024-03-06T22:59:15.019Z,54.40
2024-03-06T23:01:44.078Z,54.29
2024-03-06T23:04:14.036Z,54.51
2024-03-06T23:06:43.205Z,54.40
2024-03-06T23:09:13.814Z,54.42
2024-03-06T23:11:41.379Z,54.26
2024-03-06T23:14:11.847Z,54.53
2024-03-06T23:16:41.926Z,54.31
2024-03-06T23:19:09.220Z,54.21
2024-03-06T23:21:39.258Z,54.44
2024-03-06T23:24:08.944Z,54.08
2024-03-06T23:26:43.267Z,54.24
2024-03-06T23:29:17.016Z,54.45
2024-03-06T23:31:44.423Z,54.33
2024-03-06T23:34:14.172Z,54.27
2024-03-06T23:36:41.100Z,54.49
2024-03-06T23:39:11.087Z,54.54
2024-03-06T23:41:38.281Z,54.39
2024-03-06T23:44:14.502Z,54.46
2024-03-06T23:46:42.136Z,54.50
2024-03-06T23:49:09.072Z,54.54
2024-03-06T23:51:36.118Z,54.62
2024-03-06T23:54:08.111Z,54.60
2024-03-06T23:56:35.104Z,54.67
2024-03-06T23:59:04.920Z,54.65
